KEIK

Erie Municipal Airport

Erie, Colorado, USA
METAR KEIK 211436Z AUTO 00000KT 10SM CLR 12/09 A3009 RMK AO2 T01210085
Observed Flight Rules
May-21 @ 14:36 UTC (4 minutes ago) Visual Flight Rules
Visibility Clouds
10 miles
  • Clear skies
Temperatures Readings
Current 12°C / 54°F
Dewpoint 9°C / 48°F
Humidity 82%
Altimeter 30.09" Hg
Pressure 1019 hPa
Elevation 1564
METAR KEIK 211436Z AUTO 00000KT 10SM CLR 12/09 A3009 RMK AO2 T01210085
Observed Flight Rules
May-21 @ 14:36 UTC
(4 minutes ago)
VFR
Clouds
  • Clear skies
Temperature Dewpoint
12°C / 54°F 9°C / 48°F
Humidity Altimeter Pressure
82% 30.09" Hg 1019 hPa